Terminal Aerodrome Forecast
Issued by NWS Greer, SC

Home | Current Version | Previous Version | Text Only | Print | Product List | Glossary On
Versions: 1 2 3 4 5 6 7 8 9 10 11 12 13 14 15 16 17 18 19 20 21 22 23 24 25 26 27 28 29 30 31 32 33 34 35 36 37 38 39 40
000
FTUS42 KGSP 011726
TAFAVL
TAF
KAVL 011726Z 0118/0218 15003KT P6SM OVC012
     FM012000 00000KT P6SM OVC008
     FM021100 33006KT 3SM BR OVC003
     FM021400 34010KT P6SM BKN003 OVC012
     FM021600 34012KT P6SM BKN012=

USA.gov is the U.S. government's official web portal to all federal, state and local government web resources and services.